createdAt,value
2018-04-08T00:00:33.905Z,11.70
2018-04-08T00:02:37.319Z,12.20
2018-04-08T00:04:40.690Z,12.77
2018-04-08T00:06:43.384Z,11.73
2018-04-08T00:08:46.750Z,11.43
2018-04-08T00:10:49.350Z,10.63
2018-04-08T00:12:52.730Z,11.03
2018-04-08T00:14:55.333Z,10.57
2018-04-08T00:16:57.946Z,11.50
2018-04-08T00:19:00.561Z,10.97
2018-04-08T00:21:04.047Z,9.93
2018-04-08T00:23:06.717Z,11.37
2018-04-08T00:25:09.280Z,10.80
2018-04-08T00:27:11.873Z,11.10
2018-04-08T00:29:14.554Z,11.03
2018-04-08T00:31:17.241Z,11.17
2018-04-08T00:33:20.646Z,10.50
2018-04-08T00:35:23.237Z,10.07
2018-04-08T00:37:26.644Z,10.13
2018-04-08T00:39:29.274Z,10.33
2018-04-08T00:41:32.637Z,10.50
2018-04-08T00:43:35.255Z,10.90
2018-04-08T00:45:37.847Z,10.60
2018-04-08T00:47:40.451Z,10.83
2018-04-08T00:49:43.123Z,10.37
2018-04-08T00:51:45.700Z,10.30
2018-04-08T00:53:48.381Z,11.57
2018-04-08T00:55:51.078Z,11.00
2018-04-08T00:57:54.429Z,11.13
2018-04-08T00:59:57.044Z,10.23
2018-04-08T01:02:00.426Z,10.53
2018-04-08T01:04:03.017Z,10.70
2018-04-08T01:06:06.393Z,10.53
2018-04-08T01:08:09.013Z,10.53
2018-04-08T01:10:11.627Z,11.40
2018-04-08T01:12:14.295Z,10.83
2018-04-08T01:14:16.882Z,10.40
2018-04-08T01:16:19.544Z,10.00
2018-04-08T01:18:22.917Z,10.83
2018-04-08T01:20:26.358Z,10.67
2018-04-08T01:22:28.954Z,10.20
2018-04-08T01:24:32.315Z,10.47
2018-04-08T01:26:34.919Z,9.63
2018-04-08T01:28:38.373Z,9.53
2018-04-08T01:30:40.989Z,10.67
2018-04-08T01:32:43.575Z,9.90
2018-04-08T01:34:46.166Z,9.97
2018-04-08T01:36:48.910Z,10.57
2018-04-08T01:38:52.268Z,10.30
2018-04-08T01:40:54.876Z,10.27
2018-04-08T01:42:58.234Z,10.70
2018-04-08T01:45:00.829Z,10.77
2018-04-08T01:47:03.435Z,10.17
2018-04-08T01:49:06.036Z,10.97
2018-04-08T01:51:08.654Z,11.53
2018-04-08T01:53:11.359Z,11.20
2018-04-08T01:55:14.035Z,11.63
2018-04-08T01:57:16.710Z,11.73
2018-04-08T01:59:19.298Z,11.83
2018-04-08T02:01:21.912Z,11.77
2018-04-08T02:03:24.505Z,12.03
2018-04-08T02:05:27.092Z,12.37
2018-04-08T02:07:29.694Z,11.30
2018-04-08T02:09:32.292Z,11.93
2018-04-08T02:11:35.692Z,10.90
2018-04-08T02:13:39.061Z,10.93
2018-04-08T02:15:41.668Z,11.90
2018-04-08T02:17:44.293Z,11.73
2018-04-08T02:19:46.888Z,11.20
2018-04-08T02:21:49.555Z,10.60
2018-04-08T02:23:52.150Z,11.07
2018-04-08T02:25:54.747Z,11.23
2018-04-08T02:27:57.360Z,11.23
2018-04-08T02:29:59.956Z,10.87
2018-04-08T02:32:02.610Z,11.67
2018-04-08T02:34:05.209Z,10.73
2018-04-08T02:36:07.803Z,10.73
2018-04-08T02:38:10.409Z,11.03
2018-04-08T02:40:13.008Z,10.30
2018-04-08T02:42:15.620Z,11.70
2018-04-08T02:44:18.275Z,10.67
2018-04-08T02:46:20.871Z,10.97
2018-04-08T02:48:23.476Z,11.03
2018-04-08T02:50:26.121Z,11.53
2018-04-08T02:52:28.745Z,10.43
2018-04-08T02:54:32.104Z,10.37
2018-04-08T02:56:34.723Z,10.70
2018-04-08T02:58:37.334Z,10.87
2018-04-08T03:00:39.930Z,11.13
2018-04-08T03:02:42.549Z,11.60
2018-04-08T03:04:45.150Z,11.57
2018-04-08T03:06:47.756Z,11.47
2018-04-08T03:08:50.370Z,11.00
2018-04-08T03:10:53.018Z,11.17
2018-04-08T03:12:55.634Z,11.27
2018-04-08T03:14:58.221Z,11.03
2018-04-08T03:17:00.805Z,10.73
2018-04-08T03:19:03.546Z,11.23
2018-04-08T03:21:06.149Z,11.57
2018-04-08T03:23:08.769Z,11.70
2018-04-08T03:25:11.375Z,11.70
2018-04-08T03:27:13.967Z,11.43
2018-04-08T03:29:16.590Z,11.60
2018-04-08T03:31:19.950Z,11.60
2018-04-08T03:33:22.551Z,11.43
2018-04-08T03:35:25.170Z,12.47
2018-04-08T03:37:27.777Z,11.33
2018-04-08T03:39:30.391Z,11.67
2018-04-08T03:41:33.990Z,11.93
2018-04-08T03:43:37.346Z,10.67
2018-04-08T03:45:39.962Z,11.40
2018-04-08T03:47:43.308Z,11.70
2018-04-08T03:49:45.942Z,12.13
2018-04-08T03:51:48.534Z,11.93
2018-04-08T03:53:51.123Z,13.07
2018-04-08T03:55:53.745Z,12.30
2018-04-08T03:57:57.204Z,10.90
2018-04-08T03:59:59.817Z,11.30
2018-04-08T04:02:03.263Z,12.00
2018-04-08T04:04:05.865Z,11.83
2018-04-08T04:06:08.480Z,11.57
2018-04-08T04:08:11.088Z,11.83
2018-04-08T04:10:13.768Z,11.63
2018-04-08T04:12:16.366Z,11.30
2018-04-08T04:14:19.729Z,10.93
2018-04-08T04:16:22.360Z,11.17
2018-04-08T04:18:36.692Z,11.77
2018-04-08T04:20:51.854Z,11.57
2018-04-08T04:23:06.898Z,11.37
2018-04-08T04:25:26.154Z,12.13
2018-04-08T04:27:29.537Z,12.70
2018-04-08T04:29:32.121Z,11.67
2018-04-08T04:31:34.733Z,10.37
2018-04-08T04:33:38.211Z,11.47
2018-04-08T04:35:40.796Z,11.57
2018-04-08T04:37:43.441Z,12.00
2018-04-08T04:39:46.041Z,11.10
2018-04-08T04:41:48.685Z,11.80
2018-04-08T04:43:51.306Z,11.33
2018-04-08T04:45:54.664Z,11.10
2018-04-08T04:47:57.292Z,10.80
2018-04-08T04:49:59.881Z,11.60
2018-04-08T04:52:02.496Z,10.87
2018-04-08T04:54:05.089Z,10.63
2018-04-08T04:56:08.449Z,11.07
2018-04-08T04:58:11.084Z,11.27
2018-04-08T05:00:13.758Z,11.17
2018-04-08T05:02:16.650Z,10.63
2018-04-08T05:04:19.237Z,11.00
2018-04-08T05:06:21.834Z,10.90
2018-04-08T05:08:24.452Z,10.77
2018-04-08T05:10:27.058Z,10.53
2018-04-08T05:12:29.671Z,11.10
2018-04-08T05:14:32.277Z,11.07
2018-04-08T05:16:34.885Z,12.60
2018-04-08T05:18:37.499Z,12.20
2018-04-08T05:20:40.087Z,11.40
2018-04-08T05:22:43.473Z,12.07
2018-04-08T05:24:46.859Z,11.77
2018-04-08T05:26:49.479Z,12.10
2018-04-08T05:28:52.086Z,12.57
2018-04-08T05:30:54.674Z,11.60
2018-04-08T05:32:57.272Z,12.83
2018-04-08T05:35:00.672Z,11.33
2018-04-08T05:37:04.065Z,12.37
2018-04-08T05:39:07.610Z,12.10
2018-04-08T05:41:10.201Z,12.83
2018-04-08T05:43:12.801Z,12.37
2018-04-08T05:45:16.182Z,12.20
2018-04-08T05:47:18.814Z,12.60
2018-04-08T05:49:21.429Z,12.50
2018-04-08T05:51:24.085Z,12.73
2018-04-08T05:53:26.681Z,11.90
2018-04-08T05:55:29.335Z,11.87
2018-04-08T05:57:31.927Z,11.77
2018-04-08T05:59:35.327Z,13.07
2018-04-08T06:01:38.677Z,11.97
2018-04-08T06:03:41.289Z,11.97
2018-04-08T06:05:43.990Z,13.27
2018-04-08T06:07:46.586Z,12.77
2018-04-08T06:09:49.209Z,12.27
2018-04-08T06:11:51.816Z,12.17
2018-04-08T06:13:54.422Z,12.70
2018-04-08T06:15:57.806Z,12.57
2018-04-08T06:18:00.400Z,11.93
2018-04-08T06:20:03.005Z,12.63
2018-04-08T06:22:05.629Z,12.60
2018-04-08T06:24:08.231Z,12.87
2018-04-08T06:26:10.846Z,12.87
2018-04-08T06:28:14.226Z,12.37
2018-04-08T06:30:17.613Z,12.17
2018-04-08T06:32:20.233Z,12.73
2018-04-08T06:34:22.813Z,13.30
2018-04-08T06:36:25.408Z,13.30
2018-04-08T06:38:28.004Z,12.67
2018-04-08T06:40:30.594Z,13.60
2018-04-08T06:42:33.998Z,12.50
2018-04-08T06:44:36.593Z,13.30
2018-04-08T06:46:39.208Z,13.50
2018-04-08T06:48:41.809Z,13.37
2018-04-08T06:50:45.159Z,14.17
2018-04-08T06:52:47.773Z,15.40
2018-04-08T06:54:51.229Z,15.90
2018-04-08T06:56:53.833Z,15.33
2018-04-08T06:58:56.462Z,15.07
2018-04-08T07:00:59.060Z,16.03
2018-04-08T07:03:01.682Z,15.50
2018-04-08T07:05:04.292Z,16.80
2018-04-08T07:07:06.955Z,16.70
2018-04-08T07:09:09.670Z,20.07
2018-04-08T07:11:12.279Z,18.80
2018-04-08T07:13:14.893Z,18.97
2018-04-08T07:15:17.517Z,21.50
2018-04-08T07:17:20.138Z,20.43
2018-04-08T07:19:22.724Z,20.83
2018-04-08T07:21:25.321Z,19.63
2018-04-08T07:23:27.937Z,19.73
2018-04-08T07:25:30.602Z,18.33
2018-04-08T07:27:33.239Z,16.37
2018-04-08T07:29:35.843Z,16.83
2018-04-08T07:31:39.190Z,17.07
2018-04-08T07:33:41.818Z,18.10
2018-04-08T07:35:44.429Z,16.93
2018-04-08T07:37:47.035Z,17.27
2018-04-08T07:39:49.651Z,17.17
2018-04-08T07:41:52.522Z,16.30
2018-04-08T07:43:55.194Z,17.30
2018-04-08T07:45:58.577Z,16.47
2018-04-08T07:48:01.941Z,18.23
2018-04-08T07:50:06.062Z,18.30
2018-04-08T07:52:08.665Z,17.67
2018-04-08T07:54:12.039Z,17.17
2018-04-08T07:56:15.544Z,18.10
2018-04-08T07:58:18.894Z,18.03
2018-04-08T08:00:21.505Z,18.97
2018-04-08T08:02:24.100Z,18.57
2018-04-08T08:04:26.724Z,20.60
2018-04-08T08:06:29.322Z,22.77
2018-04-08T08:08:31.918Z,20.00
2018-04-08T08:10:34.606Z,20.87
2018-04-08T08:12:37.276Z,19.87
2018-04-08T08:14:39.882Z,21.27
2018-04-08T08:16:42.502Z,23.87
2018-04-08T08:18:45.100Z,20.07
2018-04-08T08:20:47.733Z,19.63
2018-04-08T08:22:50.340Z,20.53
2018-04-08T08:24:52.966Z,18.73
2018-04-08T08:26:55.578Z,19.37
2018-04-08T08:28:58.186Z,20.37
2018-04-08T08:31:00.813Z,17.73
2018-04-08T08:33:03.485Z,19.17
2018-04-08T08:35:06.195Z,18.17
2018-04-08T08:37:08.864Z,20.10
2018-04-08T08:39:12.246Z,20.13
2018-04-08T08:41:15.629Z,20.00
2018-04-08T08:43:18.219Z,20.80
2018-04-08T08:45:21.694Z,20.50
2018-04-08T08:47:24.317Z,20.87
2018-04-08T08:49:26.913Z,20.53
2018-04-08T08:51:29.582Z,20.10
2018-04-08T08:53:32.181Z,21.90
2018-04-08T08:55:34.778Z,18.73
2018-04-08T08:57:37.386Z,19.50
2018-04-08T08:59:40.066Z,17.53
2018-04-08T09:01:42.718Z,18.50
2018-04-08T09:03:46.087Z,17.37
2018-04-08T09:05:48.762Z,16.90
2018-04-08T09:07:51.384Z,23.40
2018-04-08T09:09:54.845Z,19.73
2018-04-08T09:11:57.698Z,18.07
2018-04-08T09:14:00.349Z,20.60
2018-04-08T09:16:02.962Z,20.17
2018-04-08T09:18:05.598Z,19.00
2018-04-08T09:22:53.741Z,16.77
2018-04-08T09:25:00.594Z,18.00
2018-04-08T09:27:03.202Z,19.00
2018-04-08T09:29:05.850Z,18.73
2018-04-08T09:31:08.471Z,19.53
2018-04-08T09:33:11.090Z,18.93
2018-04-08T09:35:14.468Z,18.80
2018-04-08T09:37:17.892Z,18.53
2018-04-08T09:39:20.514Z,17.60
2018-04-08T09:41:23.130Z,17.83
2018-04-08T09:43:25.792Z,18.00
2018-04-08T09:45:28.420Z,17.70
2018-04-08T09:47:31.069Z,18.73
2018-04-08T09:49:33.687Z,18.37
2018-04-08T09:51:36.292Z,17.03
2018-04-08T09:53:38.926Z,18.10
2018-04-08T09:55:41.528Z,18.90
2018-04-08T09:57:55.897Z,18.83
2018-04-08T09:59:59.265Z,17.70
2018-04-08T10:02:16.897Z,19.07
2018-04-08T10:04:20.299Z,22.13
2018-04-08T10:06:23.688Z,20.60
2018-04-08T10:08:26.317Z,17.97
2018-04-08T10:10:28.996Z,18.70
2018-04-08T10:12:31.590Z,18.10
2018-04-08T10:14:34.207Z,18.03
2018-04-08T10:16:37.600Z,18.60
2018-04-08T10:18:41.002Z,19.33
2018-04-08T10:20:43.738Z,18.00
2018-04-08T10:22:46.334Z,18.30
2018-04-08T10:24:48.966Z,19.20
2018-04-08T10:26:51.579Z,19.03
2018-04-08T10:28:54.977Z,17.77
2018-04-08T10:30:58.341Z,17.80
2018-04-08T10:33:00.941Z,18.50
2018-04-08T10:35:04.323Z,18.23
2018-04-08T10:37:06.917Z,20.07
2018-04-08T10:39:09.518Z,18.93
2018-04-08T10:41:12.188Z,18.97
2018-04-08T10:43:14.826Z,18.53
2018-04-08T10:45:18.218Z,17.90
2018-04-08T10:47:20.811Z,17.77
2018-04-08T10:49:23.430Z,19.00
2018-04-08T10:51:26.031Z,18.90
2018-04-08T10:53:29.393Z,18.33
2018-04-08T10:55:32.045Z,18.17
2018-04-08T10:57:34.681Z,19.13
2018-04-08T10:59:38.095Z,17.60
2018-04-08T11:01:41.457Z,18.70
2018-04-08T11:03:44.055Z,18.00
2018-04-08T11:05:46.688Z,18.43
2018-04-08T11:07:49.290Z,18.37
2018-04-08T11:09:52.677Z,18.03
2018-04-08T11:11:55.305Z,18.67
2018-04-08T11:13:57.965Z,19.40
2018-04-08T11:16:00.576Z,16.90
2018-04-08T11:18:03.182Z,17.20
2018-04-08T11:20:06.542Z,19.60
2018-04-08T11:22:09.211Z,17.40
2018-04-08T11:24:11.808Z,18.33
2018-04-08T11:26:14.429Z,18.67
2018-04-08T11:28:17.068Z,17.37
2018-04-08T11:30:19.665Z,17.73
2018-04-08T11:32:22.325Z,17.67
2018-04-08T11:34:25.693Z,18.50
2018-04-08T11:36:28.324Z,18.27
2018-04-08T11:38:30.954Z,18.87
2018-04-08T11:40:33.577Z,19.37
2018-04-08T11:42:36.189Z,18.87
2018-04-08T11:44:38.798Z,17.47
2018-04-08T11:46:42.238Z,18.63
2018-04-08T11:48:44.841Z,18.00
2018-04-08T11:50:47.456Z,18.73
2018-04-08T11:52:50.160Z,17.43
2018-04-08T11:54:52.787Z,17.77
2018-04-08T11:56:55.430Z,17.07
2018-04-08T11:58:58.052Z,18.43
2018-04-08T12:01:01.424Z,18.90
2018-04-08T12:03:04.829Z,18.97
2018-04-08T12:05:08.205Z,19.53
2018-04-08T12:07:10.800Z,18.97
2018-04-08T12:09:14.185Z,18.10
2018-04-08T12:11:16.776Z,18.07
2018-04-08T12:13:19.385Z,18.70
2018-04-08T12:15:21.993Z,18.13
2018-04-08T12:17:24.632Z,19.57
2018-04-08T12:19:27.237Z,17.73
2018-04-08T12:21:29.858Z,19.07
2018-04-08T12:23:32.465Z,18.87
2018-04-08T12:25:35.070Z,19.37
2018-04-08T12:27:37.704Z,18.03
2018-04-08T12:29:40.310Z,18.00
2018-04-08T12:31:42.903Z,18.53
2018-04-08T12:33:46.279Z,17.90
2018-04-08T12:35:48.902Z,17.67
2018-04-08T12:37:51.532Z,17.47
2018-04-08T12:39:54.164Z,17.67
2018-04-08T12:41:56.754Z,17.97
2018-04-08T12:43:59.366Z,17.27
2018-04-08T12:46:02.747Z,16.60
2018-04-08T12:48:05.343Z,17.43
2018-04-08T12:50:07.961Z,16.73
2018-04-08T12:52:10.561Z,17.07
2018-04-08T12:54:13.165Z,16.07
2018-04-08T12:56:16.518Z,16.00
2018-04-08T12:58:19.113Z,15.13
2018-04-08T13:00:21.737Z,16.73
2018-04-08T13:02:24.349Z,15.50
2018-04-08T13:04:27.057Z,17.87
2018-04-08T13:06:30.429Z,17.07
2018-04-08T13:08:33.034Z,16.80
2018-04-08T13:10:36.293Z,15.03
2018-04-08T13:12:38.889Z,16.30
2018-04-08T13:14:42.281Z,16.50
2018-04-08T13:16:45.651Z,16.37
2018-04-08T13:18:48.325Z,17.77
2018-04-08T13:20:50.922Z,16.67
2018-04-08T13:22:54.302Z,17.17
2018-04-08T13:25:00.327Z,18.00
2018-04-08T13:27:05.421Z,16.57
2018-04-08T13:29:10.437Z,16.50
2018-04-08T13:31:16.528Z,15.80
2018-04-08T13:33:22.424Z,15.30
2018-04-08T13:35:28.642Z,14.27
2018-04-08T13:37:36.089Z,16.20
2018-04-08T13:39:41.420Z,16.33
2018-04-08T13:41:49.737Z,15.07
2018-04-08T13:43:56.855Z,16.10
2018-04-08T13:46:04.574Z,16.03
2018-04-08T13:48:11.108Z,15.73
2018-04-08T13:50:18.726Z,15.20
2018-04-08T13:52:25.297Z,15.10
2018-04-08T13:54:31.793Z,15.20
2018-04-08T13:56:37.921Z,15.63
2018-04-08T13:58:46.462Z,14.73
2018-04-08T14:00:53.564Z,14.10
2018-04-08T14:02:58.249Z,14.23
2018-04-08T14:05:03.758Z,15.70
2018-04-08T14:07:09.481Z,16.50
2018-04-08T14:09:15.728Z,14.77
2018-04-08T14:11:22.005Z,14.80
2018-04-08T14:13:28.778Z,14.17
2018-04-08T14:15:34.461Z,14.13
2018-04-08T14:17:39.542Z,14.37
2018-04-08T14:19:46.773Z,14.43
2018-04-08T14:21:52.595Z,13.97
2018-04-08T14:24:00.695Z,13.33
2018-04-08T14:26:10.331Z,14.57
2018-04-08T14:28:16.484Z,14.03
2018-04-08T14:30:23.685Z,13.27
2018-04-08T14:32:30.532Z,13.47
2018-04-08T14:34:36.123Z,13.97
2018-04-08T14:36:44.683Z,14.33
2018-04-08T14:38:52.086Z,14.47
2018-04-08T14:40:59.355Z,13.87
2018-04-08T14:43:05.425Z,13.27
2018-04-08T14:45:11.841Z,13.33
2018-04-08T14:47:18.750Z,13.43
2018-04-08T14:49:26.035Z,13.57
2018-04-08T14:51:30.907Z,13.13
2018-04-08T14:53:38.046Z,15.23
2018-04-08T14:55:43.388Z,14.40
2018-04-08T14:57:50.409Z,13.80
2018-04-08T14:59:56.816Z,12.97
2018-04-08T15:02:02.722Z,12.00
2018-04-08T15:04:09.296Z,12.53
2018-04-08T15:06:16.781Z,12.57
2018-04-08T15:08:23.587Z,13.97
2018-04-08T15:10:28.905Z,12.40
2018-04-08T15:12:34.786Z,14.83
2018-04-08T15:14:41.113Z,14.00
2018-04-08T15:16:44.103Z,12.97
2018-04-08T15:18:46.709Z,15.27
2018-04-08T15:20:49.327Z,13.33
2018-04-08T15:22:51.927Z,12.30
2018-04-08T15:24:55.313Z,13.40
2018-04-08T15:26:57.917Z,13.63
2018-04-08T15:29:00.532Z,12.33
2018-04-08T15:31:03.208Z,12.50
2018-04-08T15:33:05.804Z,13.47
2018-04-08T15:35:08.436Z,12.33
2018-04-08T15:37:11.094Z,12.60
2018-04-08T15:39:13.646Z,11.10
2018-04-08T15:41:17.049Z,11.40
2018-04-08T15:43:20.413Z,12.00
2018-04-08T15:45:23.040Z,13.57
2018-04-08T15:47:25.637Z,14.93
2018-04-08T15:49:28.237Z,13.47
2018-04-08T15:51:30.927Z,12.30
2018-04-08T15:53:33.486Z,12.40
2018-04-08T15:55:36.118Z,12.47
2018-04-08T15:57:38.710Z,13.07
2018-04-08T15:59:41.317Z,12.63
2018-04-08T16:01:43.940Z,12.80
2018-04-08T16:03:46.540Z,13.27
2018-04-08T16:05:49.166Z,12.57
2018-04-08T16:07:52.534Z,12.70
2018-04-08T16:09:55.153Z,13.23
2018-04-08T16:11:57.781Z,13.00
2018-04-08T16:14:00.408Z,13.70
2018-04-08T16:16:03.058Z,13.10
2018-04-08T16:18:06.449Z,13.13
2018-04-08T16:20:09.057Z,12.43
2018-04-08T16:22:11.750Z,12.57
2018-04-08T16:24:14.434Z,12.83
2018-04-08T16:26:17.070Z,13.60
2018-04-08T16:28:19.687Z,12.77
2018-04-08T16:30:22.297Z,13.13
2018-04-08T16:32:25.686Z,12.93
2018-04-08T16:34:29.049Z,12.43
2018-04-08T16:36:31.666Z,12.83
2018-04-08T16:38:34.288Z,12.67
2018-04-08T16:40:36.897Z,11.87
2018-04-08T16:42:40.270Z,12.17
2018-04-08T16:44:42.862Z,13.27
2018-04-08T16:46:46.276Z,12.20
2018-04-08T16:48:48.888Z,12.20
2018-04-08T16:50:51.489Z,11.80
2018-04-08T16:52:54.108Z,12.27
2018-04-08T16:54:56.786Z,12.00
2018-04-08T16:56:59.444Z,12.40
2018-04-08T16:59:02.052Z,12.53
2018-04-08T17:01:04.656Z,11.93
2018-04-08T17:03:07.294Z,11.43
2018-04-08T17:05:09.889Z,12.33
2018-04-08T17:07:12.533Z,12.17
2018-04-08T17:09:15.201Z,11.27
2018-04-08T17:11:18.176Z,12.27
2018-04-08T17:13:20.815Z,11.77
2018-04-08T17:15:23.449Z,11.37
2018-04-08T17:17:26.058Z,12.23
2018-04-08T17:19:28.669Z,12.30
2018-04-08T17:21:32.093Z,10.57
2018-04-08T17:23:34.722Z,11.30
2018-04-08T17:25:37.343Z,10.70
2018-04-08T17:27:40.076Z,11.37
2018-04-08T17:29:43.470Z,10.30
2018-04-08T17:31:47.591Z,11.27
2018-04-08T17:33:51.050Z,10.83
2018-04-08T17:35:53.770Z,12.00
2018-04-08T17:37:56.390Z,12.20
2018-04-08T17:39:59.032Z,12.07
2018-04-08T17:42:01.633Z,11.23
2018-04-08T17:44:04.274Z,11.37
2018-04-08T17:46:06.891Z,10.73
2018-04-08T17:48:09.620Z,9.53
2018-04-08T17:50:12.990Z,10.30
2018-04-08T17:52:16.064Z,10.73
2018-04-08T17:54:18.728Z,11.83
2018-04-08T17:56:21.345Z,13.53
2018-04-08T17:58:24.742Z,11.47
2018-04-08T18:00:28.108Z,11.47
2018-04-08T18:02:30.737Z,10.90
2018-04-08T18:04:33.457Z,10.20
2018-04-08T18:06:36.064Z,10.53
2018-04-08T18:08:38.714Z,11.33
2018-04-08T18:10:42.094Z,10.60
2018-04-08T18:12:44.704Z,10.70
2018-04-08T18:14:47.342Z,10.50
2018-04-08T18:16:49.955Z,11.50
2018-04-08T18:18:52.586Z,10.40
2018-04-08T18:20:55.185Z,9.57
2018-04-08T18:22:58.558Z,10.13
2018-04-08T18:25:02.229Z,10.00
2018-04-08T18:27:05.606Z,10.40
2018-04-08T18:29:08.234Z,10.47
2018-04-08T18:31:10.849Z,10.10
2018-04-08T18:33:13.445Z,9.80
2018-04-08T18:35:16.078Z,10.53
2018-04-08T18:37:20.095Z,9.67
2018-04-08T18:39:22.721Z,9.73
2018-04-08T18:41:25.330Z,9.13
2018-04-08T18:43:28.711Z,9.30
2018-04-08T18:45:32.150Z,10.37
2018-04-08T18:47:35.065Z,10.67
2018-04-08T18:49:38.569Z,10.60
2018-04-08T18:51:41.200Z,11.20
2018-04-08T18:53:43.834Z,9.40
2018-04-08T18:55:46.569Z,9.27
2018-04-08T18:57:49.171Z,10.40
2018-04-08T18:59:51.849Z,10.43
2018-04-08T19:01:56.739Z,10.10
2018-04-08T19:03:59.357Z,10.80
2018-04-08T19:06:01.983Z,10.10
2018-04-08T19:08:04.626Z,10.43
2018-04-08T19:10:07.361Z,11.40
2018-04-08T19:12:09.973Z,10.83
2018-04-08T19:14:12.590Z,10.03
2018-04-08T19:16:15.235Z,10.10
2018-04-08T19:18:17.880Z,10.67
2018-04-08T19:20:20.507Z,10.13
2018-04-08T19:22:23.142Z,10.60
2018-04-08T19:24:26.558Z,10.47
2018-04-08T19:26:29.250Z,10.20
2018-04-08T19:28:31.952Z,10.73
2018-04-08T19:30:35.527Z,10.50
2018-04-08T19:32:38.339Z,10.43
2018-04-08T19:34:40.960Z,9.80
2018-04-08T19:36:44.050Z,10.07
2018-04-08T19:38:46.742Z,10.30
2018-04-08T19:40:49.379Z,10.37
2018-04-08T19:42:52.769Z,11.60
2018-04-08T19:44:56.146Z,13.53
2018-04-08T19:46:58.853Z,10.93
2018-04-08T19:49:01.498Z,10.90
2018-04-08T19:51:04.190Z,10.57
2018-04-08T19:53:07.588Z,10.03
2018-04-08T19:55:10.955Z,9.50
2018-04-08T19:57:14.408Z,10.83
2018-04-08T19:59:17.009Z,9.53
2018-04-08T20:01:19.849Z,12.07
2018-04-08T20:03:22.513Z,11.03
2018-04-08T20:05:25.887Z,10.10
2018-04-08T20:07:29.385Z,10.90
2018-04-08T20:09:32.047Z,10.93
2018-04-08T20:11:34.685Z,10.37
2018-04-08T20:13:37.281Z,10.67
2018-04-08T20:15:39.912Z,10.40
2018-04-08T20:17:42.545Z,9.87
2018-04-08T20:19:45.163Z,10.30
2018-04-08T20:21:47.757Z,9.80
2018-04-08T20:23:50.502Z,10.83
2018-04-08T20:25:53.874Z,9.40
2018-04-08T20:28:05.286Z,10.03
2018-04-08T20:30:07.873Z,10.00
2018-04-08T20:32:10.563Z,11.17
2018-04-08T20:34:13.208Z,9.43
2018-04-08T20:36:15.844Z,10.07
2018-04-08T20:38:19.518Z,10.40
2018-04-08T20:40:22.131Z,9.93
2018-04-08T20:42:24.745Z,10.30
2018-04-08T20:44:27.405Z,11.23
2018-04-08T20:46:30.764Z,10.00
2018-04-08T20:48:33.450Z,10.57
2018-04-08T20:50:36.055Z,10.73
2018-04-08T20:52:38.655Z,10.27
2018-04-08T20:54:41.447Z,11.20
2018-04-08T20:56:44.139Z,12.23
2018-04-08T20:58:46.754Z,11.80
2018-04-08T21:00:49.355Z,10.27
2018-04-08T21:02:51.967Z,10.70
2018-04-08T21:04:54.675Z,10.50
2018-04-08T21:06:58.084Z,10.80
2018-04-08T21:09:01.462Z,10.27
2018-04-08T21:11:04.083Z,10.80
2018-04-08T21:13:06.691Z,10.30
2018-04-08T21:15:09.302Z,10.33
2018-04-08T21:17:11.889Z,10.17
2018-04-08T21:19:14.560Z,9.93
2018-04-08T21:21:17.162Z,9.77
2018-04-08T21:23:20.538Z,9.90
2018-04-08T21:25:23.159Z,10.07
2018-04-08T21:27:26.521Z,10.77
2018-04-08T21:29:29.161Z,10.17
2018-04-08T21:31:31.794Z,11.20
2018-04-08T21:33:34.407Z,11.60
2018-04-08T21:35:37.033Z,11.07
2018-04-08T21:37:39.675Z,10.50
2018-04-08T21:39:42.289Z,10.43
2018-04-08T21:41:44.886Z,9.80
2018-04-08T21:43:48.275Z,10.20
2018-04-08T21:45:51.927Z,11.67
2018-04-08T21:47:54.533Z,10.60
2018-04-08T21:49:57.337Z,11.10
2018-04-08T21:52:00.742Z,10.67
2018-04-08T21:54:03.329Z,10.37
2018-04-08T21:56:06.035Z,10.03
2018-04-08T21:58:08.675Z,9.90
2018-04-08T22:00:11.271Z,10.23
2018-04-08T22:02:13.878Z,10.07
2018-04-08T22:04:16.473Z,10.03
2018-04-08T22:06:19.114Z,9.60
2018-04-08T22:08:21.719Z,10.47
2018-04-08T22:10:25.109Z,10.30
2018-04-08T22:12:27.729Z,9.87
2018-04-08T22:14:30.389Z,10.10
2018-04-08T22:16:33.002Z,10.17
2018-04-08T22:18:35.617Z,10.37
2018-04-08T22:20:38.991Z,10.60
2018-04-08T22:22:42.427Z,11.20
2018-04-08T22:24:45.023Z,11.13
2018-04-08T22:26:47.685Z,9.70
2018-04-08T22:28:50.303Z,10.60
2018-04-08T22:30:52.943Z,10.27
2018-04-08T22:32:55.564Z,10.90
2018-04-08T22:34:58.927Z,10.40
2018-04-08T22:37:01.546Z,10.67
2018-04-08T22:39:04.141Z,10.53
2018-04-08T22:41:06.730Z,11.10
2018-04-08T22:43:09.357Z,11.47
2018-04-08T22:45:12.758Z,10.70
2018-04-08T22:47:16.150Z,12.07
2018-04-08T22:49:19.510Z,11.10
2018-04-08T22:51:22.896Z,12.00
2018-04-08T22:53:26.273Z,10.30
2018-04-08T22:55:28.882Z,11.00
2018-04-08T22:57:31.577Z,11.77
2018-04-08T22:59:34.171Z,11.17
2018-04-08T23:01:36.755Z,11.27
2018-04-08T23:03:39.379Z,11.53
2018-04-08T23:05:41.966Z,11.80
2018-04-08T23:07:45.331Z,10.80
2018-04-08T23:09:47.953Z,12.40
2018-04-08T23:11:50.537Z,11.83
2018-04-08T23:13:54.346Z,11.20
2018-04-08T23:15:56.957Z,11.63
2018-04-08T23:17:59.571Z,10.33
2018-04-08T23:20:02.156Z,10.70
2018-04-08T23:22:04.802Z,10.73
2018-04-08T23:24:08.237Z,11.87
2018-04-08T23:26:10.822Z,11.30
2018-04-08T23:28:13.426Z,11.13
2018-04-08T23:30:16.015Z,10.73
2018-04-08T23:32:18.601Z,11.00
2018-04-08T23:34:22.022Z,10.97
2018-04-08T23:36:24.625Z,11.37
2018-04-08T23:38:27.222Z,10.47
2018-04-08T23:40:29.832Z,10.33
2018-04-08T23:42:32.441Z,10.10
2018-04-08T23:44:35.050Z,10.03
2018-04-08T23:46:37.653Z,10.67
2018-04-08T23:48:40.266Z,10.37
2018-04-08T23:50:42.850Z,10.60
2018-04-08T23:52:45.433Z,11.27
2018-04-08T23:54:48.056Z,11.23
2018-04-08T23:56:50.644Z,11.60
2018-04-08T23:58:53.252Z,10.40
